Time;durP1;ratioP1;P1;durP2;ratioP2;P2;SDS_P1;SDS_P2;PMS_P1;PMS_P2;Temp;Humidity;BMP_temperature;BMP_pressure;BME280_temperature;BME280_humidity;BME280_pressure;Samples;Min_cycle;Max_cycle;Signal;HPM_P1;HPM_P2
2022/11/16 00:01:07;;;;;;;24.90;18.07;;;10.40;99.90;;;;;;6212361;28;20756;-61
2022/11/16 00:04:11;;;;;;;25.73;19.37;;;10.40;99.90;;;;;;6212334;28;20472;-62
2022/11/16 00:07:15;;;;;;;22.70;18.40;;;10.40;99.90;;;;;;6213366;28;20488;-61
2022/11/16 00:10:18;;;;;;;26.90;19.60;;;10.40;99.90;;;;;;6214148;28;20833;-61
2022/11/16 00:13:21;;;;;;;22.23;18.13;;;10.50;99.90;;;;;;6210166;28;20945;-61
2022/11/16 00:16:25;;;;;;;27.37;19.60;;;10.40;99.90;;;;;;6213385;28;20594;-61
2022/11/16 00:19:30;;;;;;;24.93;19.17;;;10.40;99.90;;;;;;6209435;28;20987;-61
2022/11/16 00:22:33;;;;;;;23.63;18.17;;;10.40;99.90;;;;;;6201579;28;20619;-61
2022/11/16 00:25:36;;;;;;;25.53;19.33;;;10.40;99.90;;;;;;6208290;28;20526;-61
2022/11/16 00:28:39;;;;;;;20.60;17.37;;;10.40;99.90;;;;;;6221778;28;20487;-62
2022/11/16 00:31:43;;;;;;;25.27;17.87;;;10.40;99.90;;;;;;6216874;28;20530;-62
2022/11/16 00:34:48;;;;;;;21.23;17.43;;;10.30;99.90;;;;;;6215550;28;20469;-61
2022/11/16 00:37:51;;;;;;;26.60;19.60;;;10.40;99.90;;;;;;6216486;28;20529;-62
2022/11/16 00:40:55;;;;;;;23.53;18.97;;;10.30;99.90;;;;;;6226069;28;20448;-62
2022/11/16 00:43:58;;;;;;;30.90;23.40;;;10.30;99.90;;;;;;6226069;28;20507;-61
2022/11/16 00:47:01;;;;;;;39.00;27.57;;;10.30;99.90;;;;;;6225703;28;20889;-61
2022/11/16 00:50:06;;;;;;;22.57;18.80;;;10.30;99.90;;;;;;6225531;28;20786;-62
2022/11/16 00:53:13;;;;;;;28.30;23.73;;;10.30;99.90;;;;;;6225977;28;20471;-62
2022/11/16 00:56:16;;;;;;;24.40;19.83;;;10.20;99.90;;;;;;6225631;28;20472;-61
2022/11/16 00:59:19;;;;;;;25.07;19.63;;;10.30;99.90;;;;;;6225690;28;20467;-61
2022/11/16 01:02:22;;;;;;;20.53;16.10;;;10.30;99.90;;;;;;6225678;28;20476;-61
2022/11/16 01:05:26;;;;;;;23.03;17.13;;;10.40;99.90;;;;;;6225278;28;20472;-61
2022/11/16 01:08:30;;;;;;;21.70;17.23;;;10.40;99.90;;;;;;6224989;28;20815;-61
2022/11/16 01:14:54;;;;;;;24.77;17.30;;;10.40;99.90;;;;;;6225245;28;20485;-61
2022/11/16 01:17:57;;;;;;;21.53;16.27;;;10.40;99.90;;;;;;6224902;28;20913;-62
2022/11/16 01:21:02;;;;;;;21.70;17.00;;;10.40;99.90;;;;;;6224831;28;20842;-61
2022/11/16 01:24:05;;;;;;;21.63;15.27;;;10.30;99.90;;;;;;6224757;28;20476;-61
2022/11/16 01:27:09;;;;;;;28.73;18.43;;;10.40;99.90;;;;;;6224230;28;20526;-61
2022/11/16 01:30:14;;;;;;;24.50;17.73;;;10.40;99.90;;;;;;6228114;28;20476;-62
2022/11/16 01:33:17;;;;;;;22.90;15.90;;;10.30;99.90;;;;;;6228573;28;20538;-61
2022/11/16 01:36:22;;;;;;;23.67;18.13;;;10.30;99.90;;;;;;6228339;28;21007;-61
2022/11/16 01:39:25;;;;;;;23.50;18.40;;;10.40;99.90;;;;;;6228752;28;20511;-62
2022/11/16 01:42:30;;;;;;;23.97;19.10;;;10.40;99.90;;;;;;6227806;28;20483;-62
2022/11/16 01:45:38;;;;;;;20.07;17.00;;;10.40;99.90;;;;;;6227579;28;20475;-62
2022/11/16 01:48:42;;;;;;;22.40;18.30;;;10.30;99.90;;;;;;6227738;28;20480;-62
2022/11/16 01:51:53;;;;;;;25.57;19.40;;;10.30;99.90;;;;;;6227788;28;20542;-62
2022/11/16 01:54:56;;;;;;;24.97;16.83;;;10.30;99.90;;;;;;6227292;28;20484;-62
2022/11/16 01:58:00;;;;;;;21.90;17.53;;;10.30;99.90;;;;;;6227073;28;20471;-62
2022/11/16 02:01:03;;;;;;;20.97;16.03;;;10.30;99.90;;;;;;6227534;28;20468;-63
2022/11/16 02:04:09;;;;;;;20.33;16.90;;;10.20;99.90;;;;;;6228039;28;20468;-62
2022/11/16 02:07:23;;;;;;;23.20;17.43;;;10.10;99.90;;;;;;6227201;28;20476;-62
2022/11/16 02:10:40;;;;;;;22.20;17.07;;;10.10;99.90;;;;;;6227242;28;20554;-62
2022/11/16 02:13:54;;;;;;;28.53;18.07;;;10.10;99.90;;;;;;6223961;28;20473;-61
2022/11/16 02:17:05;;;;;;;25.03;17.40;;;10.10;99.90;;;;;;6202458;28;20444;-61
2022/11/16 02:20:31;;;;;;;24.77;18.23;;;10.10;99.90;;;;;;6202349;28;20465;-62
2022/11/16 02:24:00;;;;;;;24.20;16.20;;;10.10;99.90;;;;;;6202067;28;20473;-61
2022/11/16 02:27:24;;;;;;;23.67;18.03;;;10.00;99.90;;;;;;6164440;28;1145064;-61
2022/11/16 02:30:29;;;;;;;22.23;17.17;;;9.90;99.90;;;;;;6195184;28;20489;-61
2022/11/16 02:33:36;;;;;;;31.53;23.80;;;10.00;99.90;;;;;;6203483;28;20488;-61
2022/11/16 02:36:41;;;;;;;51.47;30.40;;;9.90;99.90;;;;;;6203562;28;20539;-61
2022/11/16 02:39:47;;;;;;;56.40;32.17;;;9.90;99.90;;;;;;6203480;28;20484;-61
2022/11/16 02:42:55;;;;;;;38.60;27.57;;;9.90;99.90;;;;;;6202974;28;20841;-61
2022/11/16 02:46:06;;;;;;;31.00;22.50;;;9.90;99.90;;;;;;6203031;28;20477;-61
2022/11/16 02:49:17;;;;;;;28.87;20.43;;;9.90;99.90;;;;;;6203090;28;20960;-62
2022/11/16 02:52:22;;;;;;;28.27;22.10;;;10.00;99.90;;;;;;6203108;28;20477;-62
2022/11/16 02:55:28;;;;;;;25.87;19.80;;;10.00;99.90;;;;;;6203396;28;20481;-62
2022/11/16 02:58:32;;;;;;;20.70;17.30;;;10.10;99.90;;;;;;6203078;28;20976;-62
2022/11/16 03:01:42;;;;;;;26.77;19.30;;;10.10;99.90;;;;;;6202994;28;20469;-62
2022/11/16 03:04:49;;;;;;;25.17;17.13;;;10.10;99.90;;;;;;6202807;28;20461;-62
2022/11/16 03:07:57;;;;;;;24.07;17.40;;;10.10;99.90;;;;;;6203346;28;20445;-62
2022/11/16 03:14:27;;;;;;;20.80;16.50;;;10.10;99.90;;;;;;6203387;28;20473;-62
2022/11/16 03:17:37;;;;;;;20.83;16.93;;;10.10;99.90;;;;;;6203513;28;20484;-62
2022/11/16 03:20:42;;;;;;;21.20;17.10;;;10.00;99.90;;;;;;6203466;28;20469;-62
2022/11/16 03:23:46;;;;;;;18.53;14.87;;;10.00;99.90;;;;;;6203042;28;20538;-62
2022/11/16 03:26:56;;;;;;;18.40;16.10;;;10.00;99.90;;;;;;6202764;28;20496;-62
2022/11/16 03:30:05;;;;;;;20.83;16.77;;;9.90;99.90;;;;;;6203071;28;20484;-62
2022/11/16 03:33:16;;;;;;;21.63;16.10;;;9.90;99.90;;;;;;6202954;28;20472;-62
2022/11/16 03:36:25;;;;;;;23.13;16.60;;;9.90;99.90;;;;;;6202395;28;20484;-62
2022/11/16 03:39:33;;;;;;;21.97;16.40;;;9.90;99.90;;;;;;6202696;28;20469;-62
2022/11/16 03:42:37;;;;;;;18.27;16.07;;;9.90;99.90;;;;;;6202373;28;20485;-62
2022/11/16 03:45:41;;;;;;;21.33;16.87;;;9.90;99.90;;;;;;6202226;28;20531;-62
2022/11/16 03:48:46;;;;;;;19.20;15.70;;;9.80;99.90;;;;;;6202388;28;20479;-62
2022/11/16 03:51:50;;;;;;;20.13;16.10;;;9.80;99.90;;;;;;6201332;28;20481;-62
2022/11/16 03:54:53;;;;;;;21.80;16.40;;;9.80;99.90;;;;;;6202122;28;20535;-62
2022/11/16 03:57:56;;;;;;;22.50;15.83;;;9.90;99.90;;;;;;6202054;28;20469;-62
2022/11/16 04:00:59;;;;;;;19.30;16.83;;;9.90;99.90;;;;;;6202438;28;20503;-62
2022/11/16 04:04:04;;;;;;;18.50;15.20;;;10.00;99.90;;;;;;6201553;28;20479;-62
2022/11/16 04:24:12;;;;;;;22.90;16.97;;;10.00;99.90;;;;;;6201488;28;20481;-61
2022/11/16 04:40:39;;;;;;;21.40;16.60;;;10.00;99.90;;;;;;6192600;28;20779;-62
2022/11/16 04:43:42;;;;;;;19.70;15.63;;;10.00;99.90;;;;;;6200724;28;20813;-61
2022/11/16 04:50:06;;;;;;;22.00;17.10;;;9.90;99.90;;;;;;6209277;28;20473;-61
2022/11/16 04:53:11;;;;;;;25.03;17.73;;;9.90;99.90;;;;;;6201819;28;20499;-62
2022/11/16 04:56:15;;;;;;;20.80;15.80;;;9.90;99.90;;;;;;6200883;28;20480;-62
2022/11/16 04:59:18;;;;;;;21.87;17.50;;;9.80;99.90;;;;;;6201262;28;20469;-63
2022/11/16 05:02:21;;;;;;;18.57;16.23;;;9.90;99.90;;;;;;6200659;28;20495;-62
2022/11/16 05:05:24;;;;;;;20.60;16.93;;;9.90;99.90;;;;;;6201257;28;20484;-62
2022/11/16 05:08:29;;;;;;;20.60;16.67;;;10.00;99.90;;;;;;6200467;28;20504;-62
2022/11/16 05:11:32;;;;;;;22.13;16.60;;;10.00;99.90;;;;;;6200902;28;20473;-62
2022/11/16 05:14:35;;;;;;;21.83;16.43;;;10.00;99.90;;;;;;6200606;28;20536;-62
2022/11/16 05:17:38;;;;;;;19.57;16.50;;;9.80;99.90;;;;;;6200918;28;20481;-62
2022/11/16 05:27:32;;;;;;;21.73;17.57;;;9.80;99.90;;;;;;6176750;28;20484;-62
2022/11/16 05:30:35;;;;;;;26.07;20.97;;;9.80;99.90;;;;;;6200389;28;20972;-63
2022/11/16 05:33:38;;;;;;;22.23;19.63;;;9.80;99.90;;;;;;6200265;28;20485;-63
2022/11/16 05:36:41;;;;;;;26.43;19.30;;;9.80;99.90;;;;;;6200200;28;20481;-63
2022/11/16 05:39:45;;;;;;;26.77;18.87;;;9.80;99.90;;;;;;6200483;28;20476;-63
2022/11/16 05:42:49;;;;;;;25.03;19.53;;;9.80;99.90;;;;;;6191326;28;20852;-62
2022/11/16 05:45:52;;;;;;;22.67;18.13;;;9.80;99.90;;;;;;6200273;28;20933;-61
2022/11/16 05:48:55;;;;;;;25.43;20.40;;;9.80;99.90;;;;;;6200399;28;20473;-62
2022/11/16 05:51:58;;;;;;;22.33;19.03;;;9.90;99.90;;;;;;6200372;28;20469;-62
2022/11/16 05:55:03;;;;;;;23.23;18.60;;;9.90;99.90;;;;;;6199836;28;20473;-62
2022/11/16 05:58:06;;;;;;;22.03;16.97;;;10.00;99.90;;;;;;6200166;28;20480;-63
2022/11/16 06:01:09;;;;;;;22.53;18.60;;;10.00;99.90;;;;;;6200047;28;20473;-62
2022/11/16 06:04:14;;;;;;;26.67;19.97;;;10.00;99.90;;;;;;6200213;28;20841;-62
2022/11/16 06:07:17;;;;;;;21.43;19.00;;;9.90;99.90;;;;;;6200059;28;20481;-62
2022/11/16 06:10:22;;;;;;;22.03;19.53;;;9.90;99.90;;;;;;6200265;28;20487;-62
2022/11/16 06:13:25;;;;;;;25.43;18.93;;;10.00;99.90;;;;;;6201193;28;20477;-62
2022/11/16 06:16:28;;;;;;;22.10;17.87;;;10.00;99.90;;;;;;6204318;28;20481;-62
2022/11/16 06:19:31;;;;;;;21.60;17.30;;;10.00;99.90;;;;;;6204282;28;20544;-62
2022/11/16 06:22:34;;;;;;;20.43;17.60;;;10.00;99.90;;;;;;6204210;28;20473;-62
2022/11/16 06:25:39;;;;;;;22.00;16.43;;;9.90;99.90;;;;;;6203972;28;20972;-62
2022/11/16 06:28:43;;;;;;;23.27;17.83;;;9.90;99.90;;;;;;6204223;28;20485;-62
2022/11/16 06:31:46;;;;;;;22.87;16.10;;;9.90;99.90;;;;;;6204201;28;20487;-61
2022/11/16 06:34:49;;;;;;;18.83;15.10;;;9.90;99.90;;;;;;6203937;28;20783;-61
2022/11/16 06:37:53;;;;;;;23.43;16.40;;;9.90;99.90;;;;;;6204230;28;20546;-62
2022/11/16 06:41:00;;;;;;;24.97;17.07;;;9.80;99.90;;;;;;6203724;28;20499;-62
2022/11/16 06:44:03;;;;;;;21.70;16.23;;;9.90;99.90;;;;;;6195032;28;20539;-61
2022/11/16 06:47:06;;;;;;;21.50;15.90;;;9.90;99.90;;;;;;6204279;28;20481;-61
2022/11/16 06:50:11;;;;;;;19.27;15.43;;;9.80;99.90;;;;;;6203605;28;20480;-61
2022/11/16 06:53:14;;;;;;;20.30;15.80;;;9.90;99.90;;;;;;6203304;28;20972;-61
2022/11/16 06:56:18;;;;;;;19.10;16.33;;;9.90;99.90;;;;;;6214936;28;20461;-62
2022/11/16 06:59:21;;;;;;;18.43;15.27;;;9.90;99.90;;;;;;6210291;28;20473;-62
2022/11/16 07:02:25;;;;;;;20.87;15.90;;;9.90;99.90;;;;;;6208059;28;20964;-62
2022/11/16 07:05:28;;;;;;;20.70;16.47;;;9.90;99.90;;;;;;6203524;28;20488;-62
2022/11/16 07:08:31;;;;;;;21.47;16.50;;;9.80;99.90;;;;;;6203324;28;20949;-62
2022/11/16 07:11:37;;;;;;;20.17;16.10;;;9.70;99.90;;;;;;6203052;28;20480;-62
2022/11/16 07:14:41;;;;;;;22.13;15.40;;;9.70;99.90;;;;;;6203345;28;20477;-62
2022/11/16 07:17:44;;;;;;;21.70;17.57;;;9.70;99.90;;;;;;6203389;28;20477;-62
2022/11/16 07:20:47;;;;;;;19.40;14.97;;;9.80;99.90;;;;;;6202586;28;20476;-62
2022/11/16 07:23:50;;;;;;;20.17;15.60;;;9.80;99.90;;;;;;6202369;28;20495;-62
2022/11/16 07:26:55;;;;;;;20.10;16.73;;;9.90;99.90;;;;;;6201763;28;20485;-62
2022/11/16 07:29:59;;;;;;;22.03;16.30;;;9.90;99.90;;;;;;6202371;28;20495;-62
2022/11/16 07:33:02;;;;;;;24.00;17.50;;;9.90;99.90;;;;;;6202247;28;20477;-62
2022/11/16 07:36:07;;;;;;;19.40;15.90;;;9.90;99.90;;;;;;6202459;28;20480;-62
2022/11/16 07:39:10;;;;;;;19.93;15.20;;;9.80;99.90;;;;;;6202279;28;20496;-59
2022/11/16 07:42:15;;;;;;;23.47;16.30;;;9.80;99.90;;;;;;6202350;28;20488;-62
2022/11/16 07:45:18;;;;;;;20.10;17.00;;;9.80;99.90;;;;;;6202028;28;20804;-62
2022/11/16 07:48:21;;;;;;;21.30;15.50;;;9.80;99.90;;;;;;6197890;28;20505;-62
2022/11/16 07:51:24;;;;;;;23.70;16.60;;;9.70;99.90;;;;;;6201795;28;20881;-62
2022/11/16 07:54:27;;;;;;;25.00;16.37;;;9.80;99.90;;;;;;6202000;28;20487;-62
2022/11/16 07:57:32;;;;;;;28.30;19.00;;;9.70;99.90;;;;;;6202060;28;20543;-62
2022/11/16 08:00:35;;;;;;;22.57;16.73;;;9.70;99.90;;;;;;6202491;28;20510;-62
2022/11/16 08:03:39;;;;;;;25.90;18.47;;;9.70;99.90;;;;;;6201858;28;20477;-62
2022/11/16 08:06:42;;;;;;;23.80;19.23;;;9.70;99.90;;;;;;6201692;28;20527;-62
2022/11/16 08:09:45;;;;;;;28.50;19.03;;;9.70;99.90;;;;;;6201829;28;20477;-62
2022/11/16 08:12:50;;;;;;;27.30;19.40;;;9.70;99.90;;;;;;6201689;28;20477;-62
2022/11/16 08:15:53;;;;;;;22.67;17.73;;;9.70;99.90;;;;;;6201453;28;20473;-62
2022/11/16 08:18:57;;;;;;;28.07;19.27;;;9.60;99.90;;;;;;6201227;28;20576;-62
2022/11/16 08:22:00;;;;;;;31.50;19.27;;;9.70;99.90;;;;;;6201328;28;20519;-62
2022/11/16 08:25:04;;;;;;;24.33;19.37;;;9.80;99.90;;;;;;6201057;28;20548;-62
2022/11/16 08:28:08;;;;;;;21.10;16.97;;;10.00;99.90;;;;;;6201392;28;20842;-62
2022/11/16 08:31:13;;;;;;;23.10;18.47;;;10.20;99.90;;;;;;6201027;28;20491;-62
2022/11/16 08:34:16;;;;;;;22.57;18.20;;;10.40;99.90;;;;;;6200990;28;20512;-62
2022/11/16 08:37:19;;;;;;;23.63;18.20;;;10.50;99.90;;;;;;6200541;28;20484;-62
2022/11/16 08:40:22;;;;;;;22.33;17.17;;;10.50;99.90;;;;;;6206729;28;20477;-69
2022/11/16 08:43:28;;;;;;;29.53;18.90;;;10.60;99.90;;;;;;6199190;28;20485;-62
2022/11/16 08:46:31;;;;;;;20.90;18.03;;;10.60;99.90;;;;;;6206173;28;20468;-62
2022/11/16 08:49:34;;;;;;;27.33;16.83;;;10.70;99.90;;;;;;6210356;28;20538;-62
2022/11/16 08:52:37;;;;;;;25.27;17.97;;;10.70;99.90;;;;;;6195405;28;20485;-62
2022/11/16 08:55:41;;;;;;;25.37;18.00;;;10.80;99.90;;;;;;6202889;28;20500;-63
2022/11/16 08:58:46;;;;;;;25.30;19.00;;;10.90;99.90;;;;;;6200932;28;20488;-62
2022/11/16 09:01:54;;;;;;;22.93;17.80;;;10.90;99.90;;;;;;6200756;28;20960;-62
2022/11/16 09:04:57;;;;;;;28.63;20.60;;;10.90;99.90;;;;;;6212143;28;20515;-62
2022/11/16 09:08:00;;;;;;;20.83;16.80;;;10.80;99.90;;;;;;6200422;28;20909;-61
2022/11/16 09:11:05;;;;;;;22.13;16.27;;;10.80;99.90;;;;;;6207944;28;20477;-60
2022/11/16 09:14:09;;;;;;;22.43;17.17;;;10.80;99.90;;;;;;6202533;28;20932;-60
2022/11/16 09:17:12;;;;;;;25.23;17.77;;;11.00;99.90;;;;;;6200326;28;20944;-60
2022/11/16 09:20:22;;;;;;;22.90;16.70;;;11.10;99.90;;;;;;6201302;28;20484;-60
2022/11/16 09:23:25;;;;;;;19.67;15.57;;;11.20;99.90;;;;;;6200191;28;20495;-60
2022/11/16 09:26:28;;;;;;;20.20;16.27;;;11.20;99.90;;;;;;6200239;28;20782;-61
2022/11/16 09:29:33;;;;;;;21.27;16.50;;;11.20;99.90;;;;;;6205985;28;20468;-61
2022/11/16 09:32:36;;;;;;;22.73;16.90;;;11.10;99.90;;;;;;6176188;28;20488;-61
2022/11/16 09:35:40;;;;;;;21.40;17.23;;;11.00;99.90;;;;;;6205434;28;20987;-61
2022/11/16 09:38:44;;;;;;;28.60;18.50;;;11.00;99.90;;;;;;6224309;28;20476;-60
2022/11/16 09:42:28;;;;;;;21.10;15.20;;;11.00;99.90;;;;;;6224019;28;20979;-61
2022/11/16 09:45:41;;;;;;;21.77;16.70;;;11.00;99.90;;;;;;6212545;28;20527;-60
2022/11/16 09:48:44;;;;;;;23.97;17.70;;;11.00;99.90;;;;;;6225484;28;20524;-60
2022/11/16 09:51:52;;;;;;;23.07;16.90;;;10.90;99.90;;;;;;6206326;28;20519;-60
2022/11/16 09:54:58;;;;;;;19.80;16.50;;;10.90;99.90;;;;;;6199323;28;21112;-60
2022/11/16 09:58:07;;;;;;;23.97;17.13;;;10.90;99.90;;;;;;6210041;28;20775;-64
2022/11/16 10:01:20;;;;;;;20.43;16.80;;;11.00;99.90;;;;;;6204299;28;20484;-60
2022/11/16 10:04:35;;;;;;;22.40;17.90;;;10.90;99.90;;;;;;6204406;28;20480;-61
2022/11/16 10:07:43;;;;;;;22.70;17.67;;;11.00;99.90;;;;;;6204024;28;20578;-61
2022/11/16 10:10:53;;;;;;;28.33;19.30;;;10.90;99.90;;;;;;6204268;28;20488;-61
2022/11/16 10:14:06;;;;;;;23.80;19.00;;;11.00;99.90;;;;;;6203557;28;20477;-61
2022/11/16 10:17:20;;;;;;;22.90;17.60;;;11.10;99.90;;;;;;6200599;28;20458;-61
2022/11/16 10:20:43;;;;;;;24.17;18.37;;;11.20;99.90;;;;;;6179991;28;20481;-61
2022/11/16 10:24:03;;;;;;;20.17;18.07;;;11.50;99.90;;;;;;6179726;28;20473;-60
2022/11/16 10:27:33;;;;;;;20.73;17.40;;;11.80;99.90;;;;;;6180092;28;20494;-60
2022/11/16 10:30:42;;;;;;;23.37;17.23;;;12.00;99.90;;;;;;6177301;28;20505;-61
2022/11/16 10:33:50;;;;;;;25.27;18.97;;;12.20;99.90;;;;;;6177783;28;20469;-61
2022/11/16 10:36:57;;;;;;;24.40;18.33;;;12.30;99.90;;;;;;6179238;28;20471;-61
2022/11/16 10:40:16;;;;;;;19.90;16.93;;;12.30;99.90;;;;;;6179393;28;20477;-61
2022/11/16 10:43:22;;;;;;;24.57;18.70;;;12.40;99.90;;;;;;6180790;28;20481;-61
2022/11/16 10:46:31;;;;;;;23.30;18.53;;;12.60;99.90;;;;;;6203126;28;20477;-60
2022/11/16 10:49:40;;;;;;;23.50;18.17;;;12.80;99.90;;;;;;6203097;28;21010;-61
2022/11/16 10:52:43;;;;;;;22.37;17.50;;;12.90;99.90;;;;;;6202706;28;20481;-61
2022/11/16 10:55:55;;;;;;;21.97;18.20;;;13.00;99.90;;;;;;6202511;28;20493;-60
2022/11/16 10:58:59;;;;;;;21.77;17.50;;;13.10;99.90;;;;;;6202046;28;20969;-60
2022/11/16 11:02:30;;;;;;;20.87;17.10;;;13.10;99.90;;;;;;6202434;28;20893;-61
2022/11/16 11:05:35;;;;;;;21.93;17.70;;;13.00;99.90;;;;;;6202661;28;20484;-61
2022/11/16 11:08:38;;;;;;;22.50;18.40;;;13.00;99.90;;;;;;6201447;28;20473;-61
2022/11/16 11:15:22;;;;;;;23.40;17.77;;;13.20;99.90;;;;;;6150093;28;20537;-61
2022/11/16 11:18:29;;;;;;;22.23;17.83;;;13.30;99.90;;;;;;6205436;28;20484;-61
2022/11/16 11:21:34;;;;;;;24.80;19.17;;;13.30;99.90;;;;;;6209333;28;20500;-61
2022/11/16 11:24:39;;;;;;;25.23;17.70;;;13.30;99.90;;;;;;6205006;28;20484;-61
2022/11/16 11:27:47;;;;;;;25.17;19.03;;;13.10;99.90;;;;;;6202121;28;20973;-60
2022/11/16 11:31:00;;;;;;;22.90;18.10;;;12.90;99.90;;;;;;6202196;28;20602;-61
2022/11/16 11:34:15;;;;;;;28.63;19.77;;;12.70;99.90;;;;;;6201627;28;20477;-61
2022/11/16 11:37:23;;;;;;;22.43;18.80;;;12.20;99.90;;;;;;6201767;28;20957;-61
2022/11/16 11:40:28;;;;;;;23.03;18.83;;;11.90;99.90;;;;;;6201574;28;20658;-61
2022/11/16 11:43:33;;;;;;;23.63;18.20;;;11.90;99.90;;;;;;6201310;28;20479;-60
2022/11/16 11:46:40;;;;;;;26.27;18.70;;;11.90;99.90;;;;;;6201723;28;20486;-61
2022/11/16 11:50:10;;;;;;;19.10;15.97;;;12.00;99.90;;;;;;6200818;28;20548;-62
2022/11/16 11:53:27;;;;;;;21.73;16.83;;;12.00;99.90;;;;;;6201280;28;20813;-61
2022/11/16 11:56:32;;;;;;;25.87;17.53;;;12.00;99.90;;;;;;6184712;23;20473;-61
2022/11/16 11:59:36;;;;;;;22.67;17.60;;;12.00;99.90;;;;;;6173137;28;20625;-61
2022/11/16 12:03:00;;;;;;;22.07;17.13;;;12.10;99.90;;;;;;6176725;28;20477;-61
2022/11/16 12:06:10;;;;;;;24.03;19.37;;;12.10;99.90;;;;;;6176716;28;20565;-62
2022/11/16 12:09:30;;;;;;;26.07;17.73;;;12.00;99.90;;;;;;6176523;28;20988;-63
2022/11/16 12:12:45;;;;;;;22.50;17.00;;;12.00;99.90;;;;;;6175953;28;20486;-62
2022/11/16 12:16:01;;;;;;;25.13;18.67;;;12.10;99.90;;;;;;6176855;28;20489;-63
2022/11/16 12:19:21;;;;;;;21.37;17.30;;;12.10;99.90;;;;;;6176601;28;20823;-62
2022/11/16 12:22:54;;;;;;;22.13;19.20;;;12.10;99.90;;;;;;6176263;28;20974;-62
2022/11/16 12:26:15;;;;;;;29.87;20.77;;;12.10;99.90;;;;;;6176432;28;21290;-60
2022/11/16 12:29:25;;;;;;;23.03;18.50;;;12.10;99.90;;;;;;6176753;28;20466;-60
2022/11/16 12:33:04;;;;;;;25.20;18.80;;;12.10;99.90;;;;;;6177493;28;20482;-60
2022/11/16 12:36:18;;;;;;;22.60;17.07;;;12.10;99.90;;;;;;6175996;28;20478;-60
2022/11/16 12:39:24;;;;;;;21.47;16.73;;;12.10;99.90;;;;;;6176344;28;20549;-60
2022/11/16 12:42:40;;;;;;;25.10;17.70;;;12.10;99.90;;;;;;6175645;28;20514;-60
2022/11/16 12:46:09;;;;;;;20.40;15.87;;;12.10;99.90;;;;;;6174736;28;20470;-60
2022/11/16 12:49:33;;;;;;;24.43;17.90;;;12.10;99.90;;;;;;6172787;28;20540;-60
2022/11/16 12:53:02;;;;;;;26.57;16.47;;;12.00;99.90;;;;;;6174690;28;21003;-60
2022/11/16 12:56:12;;;;;;;24.10;15.73;;;12.00;99.90;;;;;;6172792;28;20478;-60
2022/11/16 12:59:33;;;;;;;22.47;16.53;;;11.90;99.90;;;;;;6175191;28;20771;-60
2022/11/16 13:02:55;;;;;;;24.90;16.80;;;11.90;99.90;;;;;;6172647;28;20466;-60
2022/11/16 13:06:04;;;;;;;21.27;14.70;;;11.90;99.90;;;;;;6172181;28;20474;-59
2022/11/16 13:09:12;;;;;;;19.00;15.60;;;11.80;99.90;;;;;;6171803;28;20489;-60
2022/11/16 13:12:21;;;;;;;19.57;15.20;;;11.80;99.90;;;;;;6173084;28;20466;-60
2022/11/16 13:15:33;;;;;;;17.30;14.37;;;11.90;99.90;;;;;;6171956;28;20974;-60
2022/11/16 13:18:41;;;;;;;17.00;13.67;;;11.90;99.90;;;;;;6175410;28;20474;-60
2022/11/16 13:21:53;;;;;;;17.10;13.10;;;12.00;99.90;;;;;;6179834;28;20474;-60
2022/11/16 13:25:02;;;;;;;14.10;12.07;;;12.00;99.90;;;;;;6184717;28;20477;-60
2022/11/16 13:28:14;;;;;;;15.33;12.77;;;12.10;99.90;;;;;;6181477;28;20481;-59
2022/11/16 13:31:27;;;;;;;14.03;11.53;;;12.10;99.90;;;;;;6179330;28;20482;-60
2022/11/16 13:34:33;;;;;;;12.90;10.67;;;12.10;99.90;;;;;;6178309;28;20490;-62
2022/11/16 13:37:45;;;;;;;15.63;10.90;;;12.00;99.90;;;;;;6180669;28;20935;-62
2022/11/16 13:40:48;;;;;;;12.60;11.10;;;12.00;99.90;;;;;;6180560;28;20922;-62
2022/11/16 13:43:51;;;;;;;13.20;11.47;;;12.10;99.90;;;;;;6179416;28;20470;-62
2022/11/16 13:47:03;;;;;;;14.90;11.57;;;12.10;99.90;;;;;;6180104;28;20453;-62
2022/11/16 13:50:17;;;;;;;13.63;10.63;;;11.80;99.90;;;;;;6179485;28;20725;-62
2022/11/16 13:53:28;;;;;;;14.47;11.43;;;11.70;99.90;;;;;;6170746;28;20848;-62
2022/11/16 13:56:52;;;;;;;16.30;11.10;;;11.70;99.90;;;;;;6180282;28;20965;-63
2022/11/16 14:00:10;;;;;;;13.57;11.63;;;11.90;99.90;;;;;;6180713;28;20829;-61
2022/11/16 14:03:30;;;;;;;13.20;11.03;;;12.00;99.90;;;;;;6180664;28;20461;-61
2022/11/16 14:06:59;;;;;;;13.87;10.00;;;12.00;99.90;;;;;;6180168;28;20934;-62
2022/11/16 14:10:05;;;;;;;13.83;11.60;;;12.10;99.90;;;;;;6157771;28;20515;-62
2022/11/16 14:13:36;;;;;;;14.60;11.43;;;12.10;99.90;;;;;;6179746;28;20496;-62
2022/11/16 14:16:46;;;;;;;10.90;9.70;;;12.20;99.90;;;;;;6179556;28;20474;-63
2022/11/16 14:19:56;;;;;;;14.50;10.93;;;12.10;99.90;;;;;;6179874;28;20473;-62
2022/11/16 14:23:10;;;;;;;14.60;11.20;;;12.00;99.90;;;;;;6203955;28;20465;-63
2022/11/16 14:26:19;;;;;;;11.23;9.40;;;12.00;99.90;;;;;;6204211;28;20465;-63
2022/11/16 14:29:45;;;;;;;14.97;9.83;;;12.00;99.90;;;;;;6204079;28;20469;-62
2022/11/16 14:32:52;;;;;;;13.40;9.80;;;12.00;99.90;;;;;;6204370;28;20484;-61
2022/11/16 14:35:56;;;;;;;16.37;10.70;;;11.90;99.90;;;;;;6202587;28;20473;-63
2022/11/16 14:39:15;;;;;;;12.87;10.80;;;11.90;99.90;;;;;;6204187;28;20908;-62
2022/11/16 14:42:24;;;;;;;11.60;10.40;;;11.70;99.90;;;;;;6203731;28;20477;-62
2022/11/16 14:45:29;;;;;;;12.90;11.10;;;11.60;99.90;;;;;;6202708;28;20481;-62
2022/11/16 14:48:33;;;;;;;14.43;12.37;;;11.50;99.90;;;;;;6203363;28;20983;-62
2022/11/16 14:51:44;;;;;;;17.37;11.70;;;11.40;99.90;;;;;;6203054;28;20888;-62
2022/11/16 14:54:51;;;;;;;11.93;10.47;;;11.30;99.90;;;;;;6212834;28;20489;-61
2022/11/16 14:58:08;;;;;;;15.40;12.37;;;11.20;99.90;;;;;;6227774;28;20476;-63
2022/11/16 15:01:14;;;;;;;17.00;13.20;;;11.10;99.90;;;;;;6227272;28;20790;-62
2022/11/16 15:04:18;;;;;;;15.20;12.87;;;10.80;99.90;;;;;;6226208;28;20469;-61
2022/11/16 15:07:25;;;;;;;18.93;14.20;;;10.70;99.90;;;;;;6227186;28;20514;-61
2022/11/16 15:10:29;;;;;;;20.53;15.00;;;10.60;99.90;;;;;;6226088;28;20486;-61
2022/11/16 15:13:32;;;;;;;15.83;12.97;;;10.50;99.90;;;;;;6222580;28;20480;-61
2022/11/16 15:16:49;;;;;;;15.67;12.27;;;10.40;99.90;;;;;;6226426;28;20483;-61
2022/11/16 15:19:56;;;;;;;16.87;12.07;;;10.40;99.90;;;;;;6226718;28;20451;-62
2022/11/16 15:23:02;;;;;;;14.00;12.53;;;10.40;99.90;;;;;;6226338;28;20440;-62
2022/11/16 15:26:05;;;;;;;24.80;20.80;;;10.50;99.90;;;;;;6223593;28;20460;-63
2022/11/16 15:29:15;;;;;;;19.70;14.90;;;10.50;99.90;;;;;;6226692;28;20441;-60
2022/11/16 15:32:18;;;;;;;21.07;15.50;;;10.50;99.90;;;;;;6223350;28;20498;-61
2022/11/16 15:35:23;;;;;;;19.47;14.60;;;10.50;99.90;;;;;;6226502;28;20488;-60
2022/11/16 15:38:31;;;;;;;19.17;13.67;;;10.50;99.90;;;;;;6229112;28;20480;-60
2022/11/16 15:41:37;;;;;;;20.57;13.30;;;10.50;99.90;;;;;;6228535;28;20534;-61
2022/11/16 15:44:41;;;;;;;21.37;15.93;;;10.50;99.90;;;;;;6226912;28;20472;-62
2022/11/16 15:47:45;;;;;;;25.47;16.43;;;10.50;99.90;;;;;;6226040;28;20487;-61
2022/11/16 15:50:56;;;;;;;22.37;13.77;;;10.60;99.90;;;;;;6227085;28;20475;-61
2022/11/16 15:54:21;;;;;;;19.57;12.73;;;10.60;99.90;;;;;;6226913;28;20492;-61
2022/11/16 15:57:25;;;;;;;18.00;12.77;;;10.60;99.90;;;;;;6227007;28;20472;-61
2022/11/16 16:00:30;;;;;;;21.57;13.60;;;10.70;99.90;;;;;;6226797;28;20819;-61
2022/11/16 16:03:35;;;;;;;18.30;14.70;;;10.60;99.90;;;;;;6226982;28;20476;-60
2022/11/16 16:06:49;;;;;;;17.20;13.10;;;10.60;99.90;;;;;;6228656;28;20917;-60
2022/11/16 16:10:12;;;;;;;14.10;12.47;;;10.60;99.90;;;;;;6227567;28;20615;-61
2022/11/16 16:13:25;;;;;;;16.70;14.00;;;10.50;99.90;;;;;;6226012;28;20480;-61
2022/11/16 16:16:34;;;;;;;16.70;13.50;;;10.50;99.90;;;;;;6226012;28;20515;-61
2022/11/16 16:19:41;;;;;;;17.40;12.77;;;10.50;99.90;;;;;;6225783;28;20480;-60
2022/11/16 16:22:45;;;;;;;16.67;14.80;;;10.50;99.90;;;;;;6225984;28;20487;-61
2022/11/16 16:25:49;;;;;;;16.43;13.67;;;10.50;99.90;;;;;;6225333;28;20479;-60
2022/11/16 16:28:52;;;;;;;16.73;12.97;;;10.50;99.90;;;;;;6225605;28;20436;-60
2022/11/16 16:31:56;;;;;;;19.93;14.00;;;10.50;99.90;;;;;;6225744;28;20463;-60
2022/11/16 16:35:01;;;;;;;16.97;12.30;;;10.50;99.90;;;;;;6225246;28;20817;-60
2022/11/16 16:38:13;;;;;;;18.47;13.87;;;10.50;99.90;;;;;;6225643;28;20443;-60
2022/11/16 16:41:19;;;;;;;22.73;18.17;;;10.50;99.90;;;;;;6225666;28;20468;-60
2022/11/16 16:44:26;;;;;;;19.97;15.97;;;10.40;99.90;;;;;;6224223;28;20559;-62
2022/11/16 16:47:31;;;;;;;18.20;15.00;;;10.50;99.90;;;;;;6223981;28;20475;-61